Aviation Digital Data Service (ADDS)

Output produced by METARs form (1405 UTC 19 April 2015)
found at http://aviationweather.gov/adds/metars/
 
KLWB 191140Z 1912/2012 05004KT P6SM OVC080 
     FM191600 11010G18KT 5SM -RA BR OVC025 
     FM192000 12010G18KT 4SM -RA BR OVC012 
     FM200200 05007KT P6SM OVC015 WS020/13042KT 
     FM200800 34004KT P6SM OVC015